createdAt,value
2023-01-09T00:01:21.871Z,99441.40
2023-01-09T00:03:52.604Z,99448.58
2023-01-09T00:06:23.163Z,99438.64
2023-01-09T00:08:53.989Z,99430.91
2023-01-09T00:11:25.526Z,99420.31
2023-01-09T00:13:57.641Z,99423.69
2023-01-09T00:16:28.874Z,99428.33
2023-01-09T00:19:01.175Z,99426.53
2023-01-09T00:21:32.333Z,99423.15
2023-01-09T00:24:03.756Z,99423.38
2023-01-09T00:26:34.710Z,99430.39
2023-01-09T00:29:05.437Z,99420.19
2023-01-09T00:31:36.247Z,99422.92
2023-01-09T00:34:12.817Z,99411.66
2023-01-09T00:36:43.026Z,99411.26
2023-01-09T00:39:13.562Z,99420.33
2023-01-09T00:41:46.993Z,99407.91
2023-01-09T00:44:23.383Z,99419.53
2023-01-09T00:46:59.623Z,99421.52
2023-01-09T00:49:33.624Z,99422.70
2023-01-09T00:52:07.700Z,99422.17
2023-01-09T00:54:39.171Z,99415.85
2023-01-09T00:57:12.633Z,99410.93
2023-01-09T00:59:46.859Z,99418.45
2023-01-09T01:02:17.668Z,99418.77
2023-01-09T01:05:06.171Z,99416.92
2023-01-09T01:07:39.750Z,99407.36
2023-01-09T01:10:20.361Z,99410.59
2023-01-09T01:12:51.901Z,99413.65
2023-01-09T01:15:22.448Z,99413.02
2023-01-09T01:17:53.399Z,99411.95
2023-01-09T01:20:24.855Z,99406.60
2023-01-09T01:22:55.392Z,99400.91
2023-01-09T01:25:25.933Z,99406.17
2023-01-09T01:27:57.593Z,99406.49
2023-01-09T01:30:28.402Z,99397.98
2023-01-09T01:33:00.623Z,99400.91
2023-01-09T01:35:31.171Z,99396.92
2023-01-09T01:38:01.832Z,99404.62
2023-01-09T01:40:32.667Z,99405.12
2023-01-09T01:43:03.466Z,99397.94
2023-01-09T01:45:34.666Z,99394.40
2023-01-09T01:48:14.081Z,99405.43
2023-01-09T01:50:50.574Z,99402.62
2023-01-09T01:53:33.696Z,99395.76
2023-01-09T01:56:13.379Z,99386.22
2023-01-09T01:58:53.241Z,99383.52
2023-01-09T02:01:26.339Z,99376.33
2023-01-09T02:03:59.113Z,99383.35
2023-01-09T02:06:32.023Z,99378.10
2023-01-09T02:09:05.853Z,99380.55
2023-01-09T02:11:36.574Z,99372.17
2023-01-09T02:14:08.251Z,99369.98
2023-01-09T02:17:05.248Z,99367.92
2023-01-09T02:19:58.007Z,99359.56
2023-01-09T02:22:40.650Z,99356.86
2023-01-09T02:25:35.604Z,99357.38
2023-01-09T02:28:24.341Z,99363.38
2023-01-09T02:31:22.425Z,99350.97
2023-01-09T02:34:30.852Z,99358.01
2023-01-09T02:37:08.400Z,99352.34
2023-01-09T02:39:44.543Z,99348.18
2023-01-09T02:42:27.341Z,99342.59
2023-01-09T02:44:57.901Z,99337.48
2023-01-09T02:47:39.999Z,99330.67
2023-01-09T02:50:13.498Z,99329.02
2023-01-09T02:53:11.238Z,99332.08
2023-01-09T02:55:47.404Z,99329.96
2023-01-09T02:58:30.193Z,99321.07
2023-01-09T03:01:24.618Z,99321.08
2023-01-09T03:04:10.169Z,99319.79
2023-01-09T03:06:52.770Z,99327.36
2023-01-09T03:09:27.597Z,99319.38
2023-01-09T03:12:04.071Z,99308.87
2023-01-09T03:14:36.548Z,99308.11
2023-01-09T03:17:10.021Z,99309.98
2023-01-09T03:19:43.188Z,99309.25
2023-01-09T03:22:14.110Z,99306.21
2023-01-09T03:24:44.659Z,99301.80
2023-01-09T03:27:16.164Z,99305.22
2023-01-09T03:29:46.735Z,99297.73
2023-01-09T03:32:20.583Z,99294.73
2023-01-09T03:34:51.489Z,99289.66
2023-01-09T03:37:23.128Z,99299.77
2023-01-09T03:39:53.710Z,99306.30
2023-01-09T03:42:24.975Z,99305.66
2023-01-09T03:44:58.841Z,99305.06
2023-01-09T03:47:29.407Z,99300.82
2023-01-09T03:50:01.251Z,99287.86
2023-01-09T03:52:31.930Z,99277.10
2023-01-09T03:55:04.012Z,99283.98
2023-01-09T03:57:35.204Z,99281.52
2023-01-09T04:00:06.348Z,99282.05
2023-01-09T04:02:36.973Z,99285.87
2023-01-09T04:05:08.572Z,99280.17
2023-01-09T04:07:42.285Z,99288.84
2023-01-09T04:10:13.844Z,99277.30
2023-01-09T04:12:44.369Z,99274.89
2023-01-09T04:15:14.911Z,99269.05
2023-01-09T04:17:45.789Z,99264.31
2023-01-09T04:20:18.607Z,99261.95
2023-01-09T04:22:49.545Z,99259.64
2023-01-09T04:25:20.162Z,99257.44
2023-01-09T04:27:51.032Z,99262.41
2023-01-09T04:30:22.177Z,99263.31
2023-01-09T04:32:54.919Z,99261.63
2023-01-09T04:35:25.640Z,99269.95
2023-01-09T04:37:56.189Z,99271.64
2023-01-09T04:40:26.702Z,99262.06
2023-01-09T04:42:57.468Z,99278.27
2023-01-09T04:45:29.052Z,99278.38
2023-01-09T04:48:00.183Z,99278.44
2023-01-09T04:50:31.511Z,99278.69
2023-01-09T04:53:02.193Z,99275.48
2023-01-09T04:55:32.916Z,99270.39
2023-01-09T04:58:07.770Z,99269.36
2023-01-09T05:00:38.525Z,99266.50
2023-01-09T05:03:09.124Z,99271.05
2023-01-09T05:05:39.833Z,99264.28
2023-01-09T05:08:10.903Z,99266.67
2023-01-09T05:10:44.758Z,99255.64
2023-01-09T05:13:15.297Z,99261.09
2023-01-09T05:15:45.823Z,99246.91
2023-01-09T05:18:16.643Z,99246.42
2023-01-09T05:20:47.628Z,99239.10
2023-01-09T05:23:20.371Z,99237.03
2023-01-09T05:25:55.323Z,99228.70
2023-01-09T05:28:27.516Z,99227.97
2023-01-09T05:31:01.801Z,99225.28
2023-01-09T05:33:34.560Z,99224.19
2023-01-09T05:36:08.660Z,99219.09
2023-01-09T05:38:42.647Z,99220.75
2023-01-09T05:41:14.787Z,99225.03
2023-01-09T05:43:47.888Z,99214.84
2023-01-09T05:46:20.210Z,99210.25
2023-01-09T05:48:56.183Z,99202.29
2023-01-09T05:51:28.849Z,99196.94
2023-01-09T05:54:01.160Z,99196.45
2023-01-09T05:56:33.596Z,99199.03
2023-01-09T05:59:05.145Z,99186.14
2023-01-09T06:01:36.632Z,99186.24
2023-01-09T06:04:10.420Z,99186.16
2023-01-09T06:06:47.265Z,99190.23
2023-01-09T06:09:20.081Z,99192.23
2023-01-09T06:11:59.584Z,99190.69
2023-01-09T06:14:32.379Z,99184.30
2023-01-09T06:17:07.769Z,99184.18
2023-01-09T06:19:44.258Z,99178.31
2023-01-09T06:22:19.489Z,99176.53
2023-01-09T06:25:03.091Z,99172.73
2023-01-09T06:27:43.625Z,99174.77
2023-01-09T06:30:16.147Z,99183.08
2023-01-09T06:32:54.471Z,99185.52
2023-01-09T06:35:29.544Z,99176.54
2023-01-09T06:38:08.419Z,99176.34
2023-01-09T06:40:44.450Z,99173.27
2023-01-09T06:43:16.060Z,99165.84
2023-01-09T06:45:48.252Z,99161.52
2023-01-09T06:48:21.693Z,99166.80
2023-01-09T06:50:55.873Z,99164.41
2023-01-09T06:53:27.449Z,99168.36
2023-01-09T06:56:00.898Z,99169.95
2023-01-09T06:58:32.668Z,99176.78
2023-01-09T07:01:07.063Z,99175.61
2023-01-09T07:03:39.189Z,99181.40
2023-01-09T07:06:15.334Z,99185.34
2023-01-09T07:08:47.875Z,99188.11
2023-01-09T07:11:20.671Z,99187.97
2023-01-09T07:13:54.779Z,99191.19
2023-01-09T07:16:34.604Z,99189.55
2023-01-09T07:19:08.407Z,99190.25
2023-01-09T07:21:42.289Z,99190.28
2023-01-09T07:24:16.520Z,99191.51
2023-01-09T07:26:50.385Z,99197.52
2023-01-09T07:29:33.597Z,99187.24
2023-01-09T07:32:09.933Z,99189.34
2023-01-09T07:34:43.426Z,99191.94
2023-01-09T07:37:19.968Z,99194.95
2023-01-09T07:39:51.033Z,99198.97
2023-01-09T07:42:21.569Z,99200.70
2023-01-09T07:44:52.552Z,99201.44
2023-01-09T07:47:24.404Z,99204.36
2023-01-09T07:49:54.987Z,99193.70
2023-01-09T07:52:25.658Z,99195.70
2023-01-09T07:54:56.274Z,99195.42
2023-01-09T07:57:26.832Z,99182.09
2023-01-09T07:59:57.626Z,99179.22
2023-01-09T08:02:28.663Z,99183.68
2023-01-09T08:04:59.391Z,99171.97
2023-01-09T08:07:30.030Z,99170.03
2023-01-09T08:10:00.551Z,99157.77
2023-01-09T08:12:31.182Z,99152.05
2023-01-09T08:15:01.792Z,99154.28
2023-01-09T08:17:32.482Z,99149.76
2023-01-09T08:20:03.061Z,99150.32
2023-01-09T08:22:33.623Z,99137.26
2023-01-09T08:25:04.319Z,99139.47
2023-01-09T08:27:35.076Z,99148.37
2023-01-09T08:30:05.974Z,99147.69
2023-01-09T08:32:37.548Z,99138.09
2023-01-09T08:35:10.224Z,99141.54
2023-01-09T08:37:40.780Z,99133.66
2023-01-09T08:40:12.216Z,99128.52
2023-01-09T08:43:01.139Z,99127.55
2023-01-09T08:45:50.070Z,99131.83
2023-01-09T08:48:20.629Z,99117.00
2023-01-09T08:50:51.259Z,99111.66
2023-01-09T08:53:22.201Z,99110.05
2023-01-09T08:55:52.767Z,99106.05
2023-01-09T08:58:23.312Z,99108.38
2023-01-09T09:00:53.845Z,99098.01
2023-01-09T09:03:24.389Z,99092.98
2023-01-09T09:05:56.057Z,99092.61
2023-01-09T09:08:26.635Z,99091.52
2023-01-09T09:10:57.575Z,99090.44
2023-01-09T09:13:28.235Z,99094.83
2023-01-09T09:15:58.798Z,99090.55
2023-01-09T09:18:29.386Z,99092.86
2023-01-09T09:21:01.089Z,99101.38
2023-01-09T09:23:31.663Z,99098.73
2023-01-09T09:26:02.196Z,99090.58
2023-01-09T09:28:32.784Z,99096.77
2023-01-09T09:31:04.894Z,99096.27
2023-01-09T09:33:35.544Z,99100.16
2023-01-09T09:36:06.404Z,99098.48
2023-01-09T09:38:36.945Z,99095.33
2023-01-09T09:41:42.829Z,99086.16
2023-01-09T09:44:53.546Z,99080.88
2023-01-09T09:47:28.493Z,99087.37
2023-01-09T09:50:23.410Z,99081.75
2023-01-09T09:53:09.034Z,99085.91
2023-01-09T09:55:41.715Z,99093.23
2023-01-09T09:58:30.117Z,99091.34
2023-01-09T10:01:02.662Z,99084.55
2023-01-09T10:03:54.268Z,99085.79
2023-01-09T10:06:43.176Z,99086.14
2023-01-09T10:09:32.539Z,99081.36
2023-01-09T10:12:08.633Z,99074.26
2023-01-09T10:14:39.969Z,99076.36
2023-01-09T10:17:31.248Z,99077.38
2023-01-09T10:20:19.459Z,99073.66
2023-01-09T10:23:11.160Z,99072.72
2023-01-09T10:26:00.070Z,99075.98
2023-01-09T10:28:39.152Z,99066.20
2023-01-09T10:31:24.843Z,99056.47
2023-01-09T10:34:16.049Z,99057.83
2023-01-09T10:37:04.535Z,99053.30
2023-01-09T10:39:52.965Z,99052.10
2023-01-09T10:42:48.527Z,99053.78
2023-01-09T10:45:28.623Z,99054.39
2023-01-09T10:48:22.816Z,99050.47
2023-01-09T10:50:57.065Z,99044.38
2023-01-09T10:53:39.232Z,99052.21
2023-01-09T10:56:30.843Z,99049.38
2023-01-09T10:59:01.846Z,99052.33
2023-01-09T11:01:37.191Z,99053.47
2023-01-09T11:04:10.674Z,99052.29
2023-01-09T11:06:50.408Z,99039.79
2023-01-09T11:09:21.069Z,99042.55
2023-01-09T11:11:52.885Z,99040.68
2023-01-09T11:14:30.755Z,99032.50
2023-01-09T11:17:04.411Z,99027.05
2023-01-09T11:19:35.042Z,99020.72
2023-01-09T11:22:19.786Z,99015.88
2023-01-09T11:24:53.211Z,99018.92
2023-01-09T11:27:26.055Z,99010.76
2023-01-09T11:30:17.685Z,99016.88
2023-01-09T11:32:49.236Z,99015.76
2023-01-09T11:35:27.232Z,99015.88
2023-01-09T11:38:03.644Z,99013.16
2023-01-09T11:40:39.749Z,99010.86
2023-01-09T11:43:15.959Z,99008.93
2023-01-09T11:46:00.509Z,99012.34
2023-01-09T11:48:33.139Z,99009.25
2023-01-09T11:51:06.904Z,99011.52
2023-01-09T11:53:40.397Z,99006.34
2023-01-09T11:56:12.789Z,99001.87
2023-01-09T11:58:43.728Z,98997.17
2023-01-09T12:01:28.974Z,99001.44
2023-01-09T12:04:23.544Z,98990.48
2023-01-09T12:07:05.833Z,98986.55
2023-01-09T12:10:13.821Z,98980.78
2023-01-09T12:12:53.293Z,98978.52
2023-01-09T12:15:29.727Z,98979.30
2023-01-09T12:18:06.214Z,98977.65
2023-01-09T12:20:48.260Z,98977.35
2023-01-09T12:23:54.819Z,98975.13
2023-01-09T12:26:31.278Z,98974.98
2023-01-09T12:29:38.086Z,98966.47
2023-01-09T12:32:26.373Z,98966.21
2023-01-09T12:35:25.439Z,98963.00
2023-01-09T12:38:16.946Z,98962.48
2023-01-09T12:41:07.874Z,98956.80
2023-01-09T12:43:41.519Z,98967.01
2023-01-09T12:46:20.223Z,98960.47
2023-01-09T12:48:56.674Z,98971.84
2023-01-09T12:51:32.724Z,98978.88
2023-01-09T12:54:08.818Z,98973.70
2023-01-09T12:56:42.262Z,98961.48
2023-01-09T12:59:33.072Z,98959.92
2023-01-09T13:02:16.435Z,98955.67
2023-01-09T13:04:55.871Z,98952.80
2023-01-09T13:07:29.385Z,98960.19
2023-01-09T13:10:05.849Z,98955.08
2023-01-09T13:12:39.337Z,98955.23
2023-01-09T13:15:12.918Z,98954.66
2023-01-09T13:17:49.375Z,98946.78
2023-01-09T13:20:39.165Z,98949.32
2023-01-09T13:23:16.313Z,98947.02
2023-01-09T13:25:49.757Z,98949.00
2023-01-09T13:28:47.290Z,98948.45
2023-01-09T13:31:24.925Z,98940.89
2023-01-09T13:33:58.907Z,98940.28
2023-01-09T13:36:34.965Z,98938.50
2023-01-09T13:39:07.757Z,98944.74
2023-01-09T13:41:58.728Z,98945.13
2023-01-09T13:44:31.449Z,98952.48
2023-01-09T13:47:03.950Z,98958.63
2023-01-09T13:49:37.450Z,98957.91
2023-01-09T13:52:27.412Z,98964.02
2023-01-09T13:55:00.947Z,98961.54
2023-01-09T13:57:37.140Z,98976.39
2023-01-09T14:00:22.188Z,98976.08
2023-01-09T14:02:58.053Z,98975.23
2023-01-09T14:05:31.651Z,98977.19
2023-01-09T14:08:20.046Z,98985.33
2023-01-09T14:10:57.472Z,98991.86
2023-01-09T14:13:34.356Z,98982.52
2023-01-09T14:16:20.767Z,98982.91
2023-01-09T14:18:57.631Z,98982.66
2023-01-09T14:21:29.745Z,98998.54
2023-01-09T14:24:07.240Z,99003.94
2023-01-09T14:26:49.139Z,99002.95
2023-01-09T14:29:34.542Z,99013.03
2023-01-09T14:32:29.165Z,99023.36
2023-01-09T14:35:10.913Z,99021.41
2023-01-09T14:37:43.678Z,99018.43
2023-01-09T14:40:20.131Z,99014.61
2023-01-09T14:42:53.611Z,99013.03
2023-01-09T14:45:26.811Z,99003.39
2023-01-09T14:48:06.131Z,99008.35
2023-01-09T14:50:53.189Z,99014.59
2023-01-09T14:53:32.764Z,99032.06
2023-01-09T14:56:06.843Z,99037.11
2023-01-09T14:58:38.750Z,99029.62
2023-01-09T15:01:15.421Z,99040.14
2023-01-09T15:03:56.664Z,99040.00
2023-01-09T15:06:31.439Z,99037.73
2023-01-09T15:09:10.841Z,99047.52
2023-01-09T15:11:42.311Z,99053.72
2023-01-09T15:14:34.048Z,99067.16
2023-01-09T15:17:05.551Z,99060.69
2023-01-09T15:19:36.442Z,99074.86
2023-01-09T15:22:09.619Z,99080.25
2023-01-09T15:24:40.201Z,99074.23
2023-01-09T15:27:23.116Z,99073.34
2023-01-09T15:29:54.143Z,99078.40
2023-01-09T15:32:27.739Z,99076.45
2023-01-09T15:34:59.188Z,99081.65
2023-01-09T15:37:32.657Z,99089.09
2023-01-09T15:40:06.406Z,99088.08
2023-01-09T15:42:58.005Z,99097.30
2023-01-09T15:45:35.411Z,99101.20
2023-01-09T15:48:21.135Z,99112.95
2023-01-09T15:51:13.593Z,99110.50
2023-01-09T15:53:46.517Z,99114.67
2023-01-09T15:56:20.817Z,99109.98
2023-01-09T15:58:55.686Z,99106.83
2023-01-09T16:01:37.768Z,99113.10
2023-01-09T16:04:17.394Z,99113.78
2023-01-09T16:06:52.804Z,99113.50
2023-01-09T16:09:26.684Z,99117.85
2023-01-09T16:12:01.012Z,99113.97
2023-01-09T16:14:38.810Z,99119.75
2023-01-09T16:17:12.293Z,99111.41
2023-01-09T16:19:54.663Z,99120.94
2023-01-09T16:22:30.524Z,99118.16
2023-01-09T16:25:03.562Z,99121.45
2023-01-09T16:27:36.827Z,99130.77
2023-01-09T16:30:09.024Z,99132.45
2023-01-09T16:32:51.602Z,99128.28
2023-01-09T16:35:24.494Z,99144.16
2023-01-09T16:37:55.074Z,99142.00
2023-01-09T16:40:28.188Z,99154.67
2023-01-09T16:43:01.540Z,99161.66
2023-01-09T16:45:44.368Z,99162.69
2023-01-09T16:48:18.353Z,99166.88
2023-01-09T16:50:48.875Z,99159.70
2023-01-09T16:53:22.875Z,99165.48
2023-01-09T16:55:56.101Z,99162.60
2023-01-09T16:58:32.312Z,99157.20
2023-01-09T17:01:03.002Z,99157.29
2023-01-09T17:03:33.728Z,99164.89
2023-01-09T17:06:06.499Z,99175.14
2023-01-09T17:08:38.754Z,99165.70
2023-01-09T17:11:13.312Z,99157.05
2023-01-09T17:13:43.909Z,99158.14
2023-01-09T17:16:15.732Z,99183.63
2023-01-09T17:18:46.813Z,99196.44
2023-01-09T17:21:23.816Z,99194.88
2023-01-09T17:24:12.617Z,99197.78
2023-01-09T17:26:56.352Z,99189.06
2023-01-09T17:29:28.460Z,99175.05
2023-01-09T17:31:59.776Z,99182.50
2023-01-09T17:34:30.420Z,99182.50
2023-01-09T17:37:03.102Z,99178.50
2023-01-09T17:39:33.261Z,99191.64
2023-01-09T17:42:03.807Z,99189.11
2023-01-09T17:44:34.377Z,99193.46
2023-01-09T17:47:06.234Z,99185.20
2023-01-09T17:49:37.934Z,99177.53
2023-01-09T17:52:08.565Z,99207.47
2023-01-09T17:54:39.355Z,99201.44
2023-01-09T17:57:12.797Z,99197.30
2023-01-09T17:59:45.024Z,99187.41
2023-01-09T18:02:19.747Z,99199.13
2023-01-09T18:04:50.332Z,99193.03
2023-01-09T18:07:20.859Z,99200.97
2023-01-09T18:09:51.444Z,99204.06
2023-01-09T18:12:22.013Z,99209.06
2023-01-09T18:14:53.889Z,99231.91
2023-01-09T18:17:24.518Z,99227.68
2023-01-09T18:19:55.098Z,99234.07
2023-01-09T18:22:26.782Z,99238.20
2023-01-09T18:24:57.385Z,99233.77
2023-01-09T18:27:28.328Z,99238.78
2023-01-09T18:30:00.600Z,99236.94
2023-01-09T18:32:32.221Z,99238.50
2023-01-09T18:35:03.126Z,99241.02
2023-01-09T18:37:35.095Z,99238.73
2023-01-09T18:40:07.423Z,99245.52
2023-01-09T18:42:39.390Z,99246.39
2023-01-09T18:45:11.267Z,99254.08
2023-01-09T18:47:41.824Z,99251.12
2023-01-09T18:50:12.819Z,99254.81
2023-01-09T18:52:44.184Z,99253.48
2023-01-09T18:55:14.807Z,99258.45
2023-01-09T18:57:45.458Z,99257.48
2023-01-09T19:00:16.586Z,99259.72
2023-01-09T19:02:47.130Z,99281.89
2023-01-09T19:05:17.753Z,99281.45
2023-01-09T19:07:49.408Z,99279.63
2023-01-09T19:10:21.174Z,99269.44
2023-01-09T19:12:51.742Z,99274.20
2023-01-09T19:15:22.357Z,99274.80
2023-01-09T19:17:53.065Z,99279.88
2023-01-09T19:20:23.939Z,99288.56
2023-01-09T19:22:57.174Z,99289.01
2023-01-09T19:25:27.797Z,99290.88
2023-01-09T19:28:00.008Z,99308.73
2023-01-09T19:30:31.653Z,99320.33
2023-01-09T19:33:02.171Z,99336.41
2023-01-09T19:35:33.960Z,99339.98
2023-01-09T19:38:04.734Z,99338.58
2023-01-09T19:40:36.715Z,99335.64
2023-01-09T19:43:07.265Z,99337.09
2023-01-09T19:45:42.164Z,99351.16
2023-01-09T19:48:12.697Z,99355.84
2023-01-09T19:50:44.254Z,99345.94
2023-01-09T19:53:14.790Z,99348.73
2023-01-09T19:55:45.398Z,99336.71
2023-01-09T19:58:15.979Z,99335.67
2023-01-09T20:00:46.601Z,99332.36
2023-01-09T20:03:17.205Z,99328.41
2023-01-09T20:05:47.815Z,99355.59
2023-01-09T20:08:19.416Z,99358.55
2023-01-09T20:10:50.013Z,99364.64
2023-01-09T20:13:20.566Z,99373.78
2023-01-09T20:15:51.132Z,99359.79
2023-01-09T20:18:21.703Z,99355.56
2023-01-09T20:20:53.208Z,99361.16
2023-01-09T20:23:27.598Z,99367.05
2023-01-09T20:25:59.918Z,99370.00
2023-01-09T20:28:30.634Z,99371.31
2023-01-09T20:31:01.216Z,99386.76
2023-01-09T20:33:31.769Z,99388.63
2023-01-09T20:36:02.926Z,99398.78
2023-01-09T20:38:34.381Z,99410.72
2023-01-09T20:41:10.087Z,99403.34
2023-01-09T20:43:40.908Z,99398.13
2023-01-09T20:46:11.507Z,99412.16
2023-01-09T20:48:42.118Z,99417.73
2023-01-09T20:51:13.898Z,99407.89
2023-01-09T20:53:50.430Z,99419.23
2023-01-09T20:56:21.018Z,99429.39
2023-01-09T20:58:53.105Z,99431.38
2023-01-09T21:01:24.399Z,99444.23
2023-01-09T21:03:57.373Z,99424.26
2023-01-09T21:06:28.488Z,99427.58
2023-01-09T21:08:59.150Z,99431.45
2023-01-09T21:11:29.665Z,99441.45
2023-01-09T21:14:00.215Z,99440.19
2023-01-09T21:16:30.846Z,99446.47
2023-01-09T21:19:01.438Z,99454.73
2023-01-09T21:21:32.035Z,99453.03
2023-01-09T21:24:04.093Z,99444.86
2023-01-09T21:26:34.782Z,99462.83
2023-01-09T21:29:06.901Z,99455.41
2023-01-09T21:31:37.510Z,99462.17
2023-01-09T21:34:12.916Z,99465.81
2023-01-09T21:36:44.302Z,99477.09
2023-01-09T21:39:14.717Z,99483.95
2023-01-09T21:42:03.070Z,99485.52
2023-01-09T21:44:52.710Z,99496.98
2023-01-09T21:47:24.401Z,99502.72
2023-01-09T21:49:55.984Z,99502.90
2023-01-09T21:52:26.592Z,99513.17
2023-01-09T21:54:57.997Z,99523.08
2023-01-09T21:57:28.520Z,99510.91
2023-01-09T21:59:59.099Z,99513.66
2023-01-09T22:02:29.631Z,99528.23
2023-01-09T22:05:01.395Z,99533.06
2023-01-09T22:07:31.941Z,99540.16
2023-01-09T22:10:04.666Z,99534.15
2023-01-09T22:12:35.562Z,99532.33
2023-01-09T22:15:07.928Z,99545.03
2023-01-09T22:17:38.473Z,99550.66
2023-01-09T22:20:10.354Z,99549.38
2023-01-09T22:22:40.915Z,99558.03
2023-01-09T22:25:11.706Z,99563.17
2023-01-09T22:27:44.018Z,99561.67
2023-01-09T22:30:15.874Z,99561.67
2023-01-09T22:32:46.467Z,99577.31
2023-01-09T22:35:17.167Z,99581.23
2023-01-09T22:37:47.755Z,99586.98
2023-01-09T22:40:19.430Z,99587.17
2023-01-09T22:42:54.289Z,99582.34
2023-01-09T22:45:26.160Z,99595.20
2023-01-09T22:47:57.427Z,99597.31
2023-01-09T22:50:27.985Z,99601.83
2023-01-09T22:52:58.635Z,99604.67
2023-01-09T22:55:29.150Z,99611.13
2023-01-09T22:57:59.827Z,99617.16
2023-01-09T23:00:30.730Z,99600.47
2023-01-09T23:07:01.410Z,99604.78
2023-01-09T23:09:31.625Z,99622.88
2023-01-09T23:12:05.693Z,99625.67
2023-01-09T23:14:38.580Z,99627.17
2023-01-09T23:17:11.699Z,99622.39
2023-01-09T23:19:42.264Z,99625.38
2023-01-09T23:22:12.791Z,99629.54
2023-01-09T23:24:43.377Z,99632.78
2023-01-09T23:27:13.871Z,99635.48
2023-01-09T23:29:44.429Z,99630.35
2023-01-09T23:32:14.981Z,99644.17
2023-01-09T23:34:47.141Z,99636.91
2023-01-09T23:37:17.840Z,99639.44
2023-01-09T23:39:48.433Z,99645.11
2023-01-09T23:42:36.719Z,99649.50
2023-01-09T23:45:07.759Z,99642.50
2023-01-09T23:47:40.960Z,99662.27
2023-01-09T23:50:12.744Z,99654.09
2023-01-09T23:52:43.279Z,99658.26
2023-01-09T23:55:15.175Z,99664.37
2023-01-09T23:57:45.673Z,99660.49
